Time;durP1;ratioP1;P1;durP2;ratioP2;P2;SDS_P1;SDS_P2;PMS_P1;PMS_P2;Temp;Humidity;BMP_temperature;BMP_pressure;BME280_temperature;BME280_humidity;BME280_pressure;Samples;Min_cycle;Max_cycle;Signal;HPM_P1;HPM_P2
2023/01/29 00:02:32;;;;;;;11.63;4.75;;;;;;;-2.46;68.89;101310.44;30736010;28;96741;-66
2023/01/29 00:17:33;;;;;;;8.75;3.90;;;;;;;-2.49;69.54;101316.63;30734577;28;96717;-66
2023/01/29 00:32:34;;;;;;;9.88;4.05;;;;;;;-2.55;69.71;101299.44;30733531;28;97330;-66
2023/01/29 00:47:35;;;;;;;10.65;5.68;;;;;;;-2.86;69.21;101280.66;30739191;28;96683;-66
2023/01/29 01:17:57;;;;;;;9.52;5.82;;;;;;;-3.52;70.71;101242.19;30752818;28;96808;-66
2023/01/29 01:32:58;;;;;;;13.52;6.45;;;;;;;-3.38;71.73;101239.09;30750604;28;97356;-66
2023/01/29 01:48:07;;;;;;;12.98;6.70;;;;;;;-3.07;71.54;101242.28;30763954;28;96571;-66
2023/01/29 02:18:29;;;;;;;7.40;3.97;;;;;;;-2.51;71.75;101234.13;30745734;28;96722;-66
2023/01/29 02:33:29;;;;;;;5.72;3.50;;;;;;;-2.16;71.33;101230.09;30743832;28;97204;-66
2023/01/29 02:48:52;;;;;;;9.82;4.32;;;;;;;-2.15;71.17;101242.22;30743364;28;96730;-66
2023/01/29 03:03:57;;;;;;;4.95;3.42;;;;;;;-2.07;70.69;101240.13;30742268;28;96566;-66
2023/01/29 03:19:12;;;;;;;5.97;3.45;;;;;;;-2.21;70.99;101232.03;30739154;28;97396;-66
2023/01/29 03:34:22;;;;;;;5.28;3.47;;;;;;;-2.13;69.95;101229.97;30739442;28;97501;-66
2023/01/29 03:49:45;;;;;;;4.03;3.17;;;;;;;-2.19;70.01;101224.97;30738040;28;96660;-66
2023/01/29 04:04:50;;;;;;;5.10;3.83;;;;;;;-2.25;70.17;101199.97;30736181;28;97136;-66
2023/01/29 04:19:52;;;;;;;4.97;3.67;;;;;;;-2.27;69.15;101198.34;30732486;28;97103;-66
2023/01/29 04:34:56;;;;;;;5.55;3.88;;;;;;;-2.33;69.81;101183.78;30732905;28;96713;-66
2023/01/29 04:50:07;;;;;;;7.70;4.50;;;;;;;-2.37;68.77;101150.91;30732339;28;96692;-66
2023/01/29 05:05:09;;;;;;;5.15;3.63;;;;;;;-2.44;68.89;101152.06;30731165;28;96612;-66
2023/01/29 05:20:11;;;;;;;5.93;3.92;;;;;;;-2.56;69.42;101143.84;30728018;28;96778;-66
2023/01/29 05:35:11;;;;;;;6.72;3.75;;;;;;;-2.55;68.75;101129.84;30737147;28;96706;-66
2023/01/29 05:50:13;;;;;;;6.80;5.05;;;;;;;-2.52;68.83;101143.69;30748698;28;97156;-66
2023/01/29 06:05:13;;;;;;;7.05;3.35;;;;;;;-2.63;68.66;101138.91;30747361;28;96687;-66
2023/01/29 06:20:14;;;;;;;5.32;2.95;;;;;;;-2.69;68.83;101132.19;30745495;28;96784;-66
2023/01/29 06:35:14;;;;;;;5.90;3.40;;;;;;;-2.82;68.98;101141.41;30743935;28;96697;-66
2023/01/29 06:50:15;;;;;;;9.30;4.35;;;;;;;-2.80;68.56;101166.53;30740405;28;97426;-66
2023/01/29 07:05:16;;;;;;;9.00;3.88;;;;;;;-2.72;68.71;101194.91;30740841;28;96796;-66
2023/01/29 07:20:16;;;;;;;6.84;4.14;;;;;;;-2.55;69.14;101202.06;30735677;28;96689;-66
2023/01/29 07:35:17;;;;;;;4.07;3.63;;;;;;;-2.34;68.74;101189.06;30734443;28;96806;-66
2023/01/29 07:50:17;;;;;;;5.28;3.58;;;;;;;-2.00;67.61;101183.28;30735371;28;96840;-67
2023/01/29 08:05:18;;;;;;;7.35;4.40;;;;;;;-1.84;67.07;101175.66;30732282;28;96721;-67
2023/01/29 08:20:19;;;;;;;6.32;4.64;;;;;;;-1.54;66.48;101170.00;30731672;28;96701;-67
2023/01/29 08:35:20;;;;;;;5.30;3.72;;;;;;;-1.60;66.37;101150.22;30734225;28;97152;-66
2023/01/29 08:50:21;;;;;;;4.10;3.25;;;;;;;-1.28;66.29;101128.78;30851481;28;97091;-65
2023/01/29 09:05:21;;;;;;;5.70;4.03;;;;;;;-0.78;64.80;101132.53;30841442;28;97208;-65
2023/01/29 09:20:21;;;;;;;8.15;5.53;;;;;;;0.35;65.37;101129.50;30857253;28;97435;-66
2023/01/29 09:35:22;;;;;;;12.10;5.10;;;;;;;-0.15;63.36;101121.56;30867219;28;96660;-62
2023/01/29 09:50:48;;;;;;;7.60;5.20;;;;;;;-0.05;63.26;101114.09;30867363;28;96571;-63
2023/01/29 10:06:03;;;;;;;8.95;5.43;;;;;;;2.03;60.76;101062.25;30865094;28;98237;-65
2023/01/29 10:21:22;;;;;;;9.57;5.40;;;;;;;4.11;55.61;101047.84;30861880;28;96795;-65
2023/01/29 10:36:32;;;;;;;12.20;6.38;;;;;;;4.20;56.91;101026.09;30861189;28;97071;-63
2023/01/29 10:51:33;;;;;;;13.38;5.55;;;;;;;2.52;56.49;101018.91;30859108;28;96742;-63
2023/01/29 11:06:35;;;;;;;12.13;5.93;;;;;;;2.96;56.85;101004.63;30859424;28;96876;-66
2023/01/29 11:21:57;;;;;;;11.63;5.65;;;;;;;2.34;57.50;100982.31;30857717;28;96751;-63
2023/01/29 11:37:03;;;;;;;9.75;4.93;;;;;;;1.71;58.85;100972.22;30856454;28;96754;-63
2023/01/29 11:52:07;;;;;;;7.90;4.80;;;;;;;1.44;59.52;100921.31;30856876;28;97682;-63
2023/01/29 12:07:16;;;;;;;7.70;4.83;;;;;;;1.40;60.67;100906.66;30855265;28;98383;-63
2023/01/29 12:22:23;;;;;;;8.27;4.63;;;;;;;1.50;61.51;100878.94;30854168;28;96793;-63
2023/01/29 12:37:29;;;;;;;7.68;3.95;;;;;;;1.28;61.93;100845.25;30852861;28;96680;-63
2023/01/29 12:52:38;;;;;;;7.78;4.28;;;;;;;1.11;62.37;100843.66;30871254;28;97106;-63
2023/01/29 13:07:46;;;;;;;12.60;5.43;;;;;;;1.12;63.38;100815.63;30871410;28;97022;-63
2023/01/29 13:22:49;;;;;;;8.68;5.00;;;;;;;1.24;63.92;100819.28;30870201;28;96786;-62
2023/01/29 13:37:53;;;;;;;6.97;4.53;;;;;;;1.38;63.29;100810.56;30842675;28;97885;-62
2023/01/29 13:53:00;;;;;;;9.00;5.47;;;;;;;1.11;63.21;100803.47;30745425;28;97541;-63
2023/01/29 14:08:12;;;;;;;7.30;4.32;;;;;;;0.99;64.18;100784.06;30744421;28;96674;-63
2023/01/29 14:23:47;;;;;;;13.25;6.70;;;;;;;1.12;64.15;100773.66;30850437;28;96921;-65
2023/01/29 14:38:49;;;;;;;;;;;;;;;0.88;64.96;100787.34;30852721;28;97369;-64
2023/01/29 14:54:22;;;;;;;13.98;6.55;;;;;;;0.89;65.75;100770.66;30852307;28;96747;-64
2023/01/29 15:09:35;;;;;;;15.20;6.85;;;;;;;0.78;65.68;100765.22;30841826;28;97282;-66
2023/01/29 15:24:37;;;;;;;9.73;5.13;;;;;;;0.58;66.92;100775.13;30857102;28;96789;-65
2023/01/29 15:39:43;;;;;;;15.43;7.03;;;;;;;0.46;67.51;100781.09;30857014;28;97169;-65
2023/01/29 15:54:44;;;;;;;15.88;8.68;;;;;;;0.45;68.11;100776.78;30787418;28;97535;-67
2023/01/29 16:09:45;;;;;;;14.98;8.00;;;;;;;0.47;68.35;100778.38;30783070;28;97316;-63
2023/01/29 16:24:48;;;;;;;13.43;7.95;;;;;;;0.43;68.69;100755.91;30780474;28;97293;-63
2023/01/29 16:39:53;;;;;;;17.57;9.50;;;;;;;0.44;69.17;100756.78;30780591;28;98518;-64
2023/01/29 16:55:12;;;;;;;16.03;8.97;;;;;;;0.45;69.22;100764.53;30821550;28;97994;-64
2023/01/29 17:10:17;;;;;;;18.55;9.57;;;;;;;0.26;69.75;100732.47;30834109;28;96645;-65
2023/01/29 17:25:18;;;;;;;21.20;10.93;;;;;;;0.21;70.36;100718.81;30838736;28;97215;-64
2023/01/29 17:40:32;;;;;;;21.98;11.05;;;;;;;0.13;70.87;100722.72;30776507;28;97275;-67
2023/01/29 17:55:32;;;;;;;20.07;11.13;;;;;;;-0.33;70.98;100700.97;30796812;28;97357;-65
2023/01/29 18:10:33;;;;;;;24.38;12.48;;;;;;;-0.49;71.75;100680.91;30775908;28;96664;-64
2023/01/29 18:25:33;;;;;;;19.60;11.13;;;;;;;-0.40;72.38;100672.50;30788255;28;96874;-66
2023/01/29 18:40:34;;;;;;;22.20;11.63;;;;;;;-0.38;72.36;100660.19;30813474;28;97293;-65
2023/01/29 18:55:34;;;;;;;19.10;11.25;;;;;;;-0.38;72.57;100635.78;30846993;28;97411;-64
2023/01/29 19:10:35;;;;;;;20.45;11.90;;;;;;;-0.37;72.68;100616.50;30784944;28;97776;-64
2023/01/29 19:25:37;;;;;;;15.20;9.32;;;;;;;-0.45;72.58;100611.75;30779303;28;97511;-64
2023/01/29 19:40:38;;;;;;;28.70;12.85;;;;;;;-0.56;72.61;100601.03;30781046;28;97575;-65
2023/01/29 19:55:38;;;;;;;28.92;14.30;;;;;;;-0.66;72.54;100585.00;30786875;28;97742;-63
2023/01/29 20:10:44;;;;;;;24.48;14.18;;;;;;;-0.94;72.39;100557.00;30749212;28;97581;-64
2023/01/29 20:25:48;;;;;;;20.00;10.80;;;;;;;-1.19;72.33;100553.13;30740906;28;96955;-62
2023/01/29 20:40:49;;;;;;;22.27;11.20;;;;;;;-1.37;72.71;100545.41;30774736;28;98537;-64
2023/01/29 20:55:49;;;;;;;24.80;12.98;;;;;;;-1.45;72.67;100537.13;30799503;28;97409;-63
2023/01/29 21:10:52;;;;;;;13.90;9.38;;;;;;;-1.50;72.86;100523.47;30858919;28;97061;-63
2023/01/29 21:25:58;;;;;;;16.08;8.70;;;;;;;-1.62;72.12;100505.88;30869241;28;97054;-63
2023/01/29 21:41:03;;;;;;;12.10;6.93;;;;;;;-2.02;72.23;100487.97;30869948;28;96653;-63
2023/01/29 21:56:04;;;;;;;14.07;8.35;;;;;;;-2.25;72.66;100474.34;30868419;28;96558;-63
2023/01/29 22:11:06;;;;;;;13.15;7.70;;;;;;;-2.30;73.22;100446.81;30866840;28;97443;-64
2023/01/29 22:26:08;;;;;;;11.82;6.20;;;;;;;-2.42;72.58;100436.13;30864332;28;96680;-63
2023/01/29 22:41:09;;;;;;;11.10;6.47;;;;;;;-2.56;72.72;100387.28;30862384;28;97390;-64
2023/01/29 22:56:10;;;;;;;13.14;8.06;;;;;;;-2.23;73.66;100349.00;30864177;28;96841;-63
2023/01/29 23:11:14;;;;;;;9.82;6.47;;;;;;;-2.02;73.32;100318.25;30862564;28;96647;-63
2023/01/29 23:41:33;;;;;;;11.10;6.88;;;;;;;-2.04;71.70;100262.66;30860319;28;97030;-63
2023/01/29 23:56:33;;;;;;;14.80;8.02;;;;;;;-2.40;71.43;100228.13;30858905;28;96698;-63
